createdAt,value
2019-01-27T00:02:00.000Z,97647
2019-01-27T00:07:00.000Z,97635
2019-01-27T00:12:00.000Z,97625
2019-01-27T00:17:00.000Z,97622
2019-01-27T00:22:00.000Z,97612
2019-01-27T00:27:00.000Z,97612
2019-01-27T00:32:00.000Z,97606
2019-01-27T00:37:00.000Z,97591
2019-01-27T00:42:00.000Z,97583
2019-01-27T00:47:00.000Z,97573
2019-01-27T00:52:00.000Z,97575
2019-01-27T00:57:00.000Z,97575
2019-01-27T01:02:00.000Z,97571
2019-01-27T01:07:00.000Z,97562
2019-01-27T01:12:00.000Z,97542
2019-01-27T01:17:00.000Z,97540
2019-01-27T01:22:00.000Z,97533
2019-01-27T01:27:00.000Z,97540
2019-01-27T01:32:00.000Z,97559
2019-01-27T01:37:00.000Z,97554
2019-01-27T01:42:00.000Z,97545
2019-01-27T01:47:00.000Z,97529
2019-01-27T01:52:00.000Z,97497
2019-01-27T01:57:00.000Z,97494
2019-01-27T02:02:00.000Z,97480
2019-01-27T02:07:00.000Z,97489
2019-01-27T02:12:00.000Z,97480
2019-01-27T02:17:00.000Z,97486
2019-01-27T02:22:00.000Z,97469
2019-01-27T02:27:00.000Z,97474
2019-01-27T02:32:00.000Z,97468
2019-01-27T02:37:00.000Z,97451
2019-01-27T02:42:00.000Z,97463
2019-01-27T02:47:00.000Z,97462
2019-01-27T02:52:00.000Z,97453
2019-01-27T02:57:00.000Z,97446
2019-01-27T03:02:00.000Z,97442
2019-01-27T03:07:00.000Z,97436
2019-01-27T03:12:00.000Z,97437
2019-01-27T03:17:00.000Z,97436
2019-01-27T03:22:00.000Z,97434
2019-01-27T03:27:00.000Z,97419
2019-01-27T03:32:00.000Z,97433
2019-01-27T03:37:00.000Z,97417
2019-01-27T03:42:00.000Z,97416
2019-01-27T03:47:00.000Z,97409
2019-01-27T03:52:00.000Z,97416
2019-01-27T03:57:00.000Z,97415
2019-01-27T04:02:00.000Z,97407
2019-01-27T04:07:00.000Z,97394
2019-01-27T04:12:00.000Z,97378
2019-01-27T04:17:00.000Z,97378
2019-01-27T04:22:00.000Z,97363
2019-01-27T04:27:00.000Z,97356
2019-01-27T04:32:00.000Z,97362
2019-01-27T04:37:00.000Z,97349
2019-01-27T04:42:00.000Z,97341
2019-01-27T04:47:00.000Z,97328
2019-01-27T04:52:00.000Z,97318
2019-01-27T04:57:00.000Z,97314
2019-01-27T05:02:00.000Z,97302
2019-01-27T05:07:00.000Z,97296
2019-01-27T05:12:00.000Z,97282
2019-01-27T05:17:00.000Z,97282
2019-01-27T05:22:00.000Z,97288
2019-01-27T05:27:00.000Z,97288
2019-01-27T05:32:00.000Z,97280
2019-01-27T05:37:00.000Z,97267
2019-01-27T05:42:00.000Z,97263
2019-01-27T05:47:00.000Z,97257
2019-01-27T05:53:00.000Z,97250
2019-01-27T05:58:00.000Z,97242
2019-01-27T06:03:00.000Z,97239
2019-01-27T06:08:00.000Z,97251
2019-01-27T06:13:00.000Z,97227
2019-01-27T06:18:00.000Z,97230
2019-01-27T06:23:00.000Z,97228
2019-01-27T06:28:00.000Z,97206
2019-01-27T06:33:00.000Z,97216
2019-01-27T06:38:00.000Z,97216
2019-01-27T06:43:00.000Z,97217
2019-01-27T06:48:00.000Z,97201
2019-01-27T06:53:00.000Z,97194
2019-01-27T06:58:00.000Z,97188
2019-01-27T07:03:00.000Z,97195
2019-01-27T07:08:00.000Z,97190
2019-01-27T07:13:00.000Z,97197
2019-01-27T07:18:00.000Z,97192
2019-01-27T07:23:00.000Z,97194
2019-01-27T07:28:00.000Z,97170
2019-01-27T07:33:00.000Z,97157
2019-01-27T07:38:00.000Z,97150
2019-01-27T07:43:00.000Z,97142
2019-01-27T07:48:00.000Z,97143
2019-01-27T07:53:00.000Z,97126
2019-01-27T07:58:00.000Z,97136
2019-01-27T08:03:00.000Z,97110
2019-01-27T08:08:00.000Z,97103
2019-01-27T08:13:00.000Z,97108
2019-01-27T08:18:00.000Z,97096
2019-01-27T08:23:00.000Z,97107
2019-01-27T08:28:00.000Z,97112
2019-01-27T08:33:00.000Z,97102
2019-01-27T08:38:00.000Z,97105
2019-01-27T08:43:00.000Z,97097
2019-01-27T08:48:00.000Z,97103
2019-01-27T08:53:00.000Z,97086
2019-01-27T08:58:00.000Z,97080
2019-01-27T09:03:00.000Z,97088
2019-01-27T09:08:00.000Z,97111
2019-01-27T09:13:00.000Z,97108
2019-01-27T09:18:00.000Z,97103
2019-01-27T09:23:00.000Z,97092
2019-01-27T09:28:00.000Z,97091
2019-01-27T09:33:00.000Z,97095
2019-01-27T09:38:00.000Z,97087
2019-01-27T09:43:00.000Z,97074
2019-01-27T09:48:00.000Z,97060
2019-01-27T09:53:00.000Z,97071
2019-01-27T09:58:00.000Z,97092
2019-01-27T10:03:00.000Z,97095
2019-01-27T10:08:00.000Z,97067
2019-01-27T10:13:00.000Z,97064
2019-01-27T10:18:00.000Z,97063
2019-01-27T10:23:00.000Z,97048
2019-01-27T10:28:00.000Z,97046
2019-01-27T10:33:00.000Z,97029
2019-01-27T10:38:00.000Z,97036
2019-01-27T10:43:00.000Z,97041
2019-01-27T10:48:00.000Z,97023
2019-01-27T10:53:00.000Z,97023
2019-01-27T10:58:00.000Z,97003
2019-01-27T11:03:00.000Z,96989
2019-01-27T11:08:00.000Z,96977
2019-01-27T11:13:00.000Z,96963
2019-01-27T11:18:00.000Z,96957
2019-01-27T11:23:00.000Z,96946
2019-01-27T11:28:00.000Z,96934
2019-01-27T11:33:00.000Z,96941
2019-01-27T11:38:00.000Z,96915
2019-01-27T11:44:00.000Z,96912
2019-01-27T11:49:00.000Z,96907
2019-01-27T11:54:00.000Z,96907
2019-01-27T11:59:00.000Z,96900
2019-01-27T12:04:00.000Z,96888
2019-01-27T12:09:00.000Z,96873
2019-01-27T12:14:00.000Z,96864
2019-01-27T12:19:00.000Z,96887
2019-01-27T12:24:00.000Z,96870
2019-01-27T12:29:00.000Z,96879
2019-01-27T12:34:00.000Z,96876
2019-01-27T12:39:00.000Z,96864
2019-01-27T12:44:00.000Z,96845
2019-01-27T12:49:00.000Z,96839
2019-01-27T12:54:00.000Z,96839
2019-01-27T12:59:00.000Z,96844
2019-01-27T13:04:00.000Z,96856
2019-01-27T13:09:00.000Z,96853
2019-01-27T13:14:00.000Z,96851
2019-01-27T13:19:00.000Z,96824
2019-01-27T13:24:00.000Z,96823
2019-01-27T13:29:00.000Z,96807
2019-01-27T13:34:00.000Z,96819
2019-01-27T13:39:00.000Z,96817
2019-01-27T13:44:00.000Z,96811
2019-01-27T13:49:00.000Z,96804
2019-01-27T13:54:00.000Z,96805
2019-01-27T13:59:00.000Z,96805
2019-01-27T14:04:00.000Z,96805
2019-01-27T14:09:00.000Z,96815
2019-01-27T14:14:00.000Z,96794
2019-01-27T14:19:00.000Z,96792
2019-01-27T14:24:00.000Z,96795
2019-01-27T14:29:00.000Z,96811
2019-01-27T14:34:00.000Z,96818
2019-01-27T14:39:00.000Z,96796
2019-01-27T14:44:00.000Z,96792
2019-01-27T14:49:00.000Z,96789
2019-01-27T14:54:00.000Z,96797
2019-01-27T14:59:00.000Z,96795
2019-01-27T15:04:00.000Z,96795
2019-01-27T15:09:00.000Z,96786
2019-01-27T15:14:00.000Z,96783
2019-01-27T15:19:00.000Z,96781
2019-01-27T15:24:00.000Z,96778
2019-01-27T15:29:00.000Z,96781
2019-01-27T15:34:00.000Z,96791
2019-01-27T15:39:00.000Z,96765
2019-01-27T15:44:00.000Z,96764
2019-01-27T15:49:00.000Z,96765
2019-01-27T15:54:00.000Z,96786
2019-01-27T15:59:00.000Z,96792
2019-01-27T16:04:00.000Z,96777
2019-01-27T16:09:00.000Z,96779
2019-01-27T16:14:00.000Z,96776
2019-01-27T16:19:00.000Z,96769
2019-01-27T16:24:00.000Z,96758
2019-01-27T16:29:00.000Z,96757
2019-01-27T16:34:00.000Z,96758
2019-01-27T16:39:00.000Z,96749
2019-01-27T16:44:00.000Z,96752
2019-01-27T16:49:00.000Z,96744
2019-01-27T16:54:00.000Z,96727
2019-01-27T16:59:00.000Z,96728
2019-01-27T17:04:00.000Z,96737
2019-01-27T17:09:00.000Z,96744
2019-01-27T17:14:00.000Z,96739
2019-01-27T17:19:00.000Z,96727
2019-01-27T17:25:00.000Z,96723
2019-01-27T17:30:00.000Z,96713
2019-01-27T17:35:00.000Z,96715
2019-01-27T17:40:00.000Z,96711
2019-01-27T17:45:00.000Z,96719
2019-01-27T17:50:00.000Z,96710
2019-01-27T17:55:00.000Z,96710
2019-01-27T18:00:00.000Z,96723
2019-01-27T18:05:00.000Z,96729
2019-01-27T18:10:00.000Z,96723
2019-01-27T18:15:00.000Z,96700
2019-01-27T18:20:00.000Z,96727
2019-01-27T18:25:00.000Z,96730
2019-01-27T18:30:00.000Z,96739
2019-01-27T18:35:00.000Z,96729
2019-01-27T18:40:00.000Z,96723
2019-01-27T18:45:00.000Z,96732
2019-01-27T18:50:00.000Z,96730
2019-01-27T18:55:00.000Z,96733
2019-01-27T19:00:00.000Z,96731
2019-01-27T19:05:00.000Z,96738
2019-01-27T19:10:00.000Z,96720
2019-01-27T19:15:00.000Z,96734
2019-01-27T19:20:00.000Z,96727
2019-01-27T19:25:00.000Z,96719
2019-01-27T19:30:00.000Z,96720
2019-01-27T19:35:00.000Z,96718
2019-01-27T19:40:00.000Z,96719
2019-01-27T19:45:00.000Z,96717
2019-01-27T19:50:00.000Z,96727
2019-01-27T19:55:00.000Z,96707
2019-01-27T20:00:00.000Z,96709
2019-01-27T20:05:00.000Z,96708
2019-01-27T20:10:00.000Z,96693
2019-01-27T20:15:00.000Z,96710
2019-01-27T20:20:00.000Z,96713
2019-01-27T20:25:00.000Z,96720
2019-01-27T20:30:00.000Z,96715
2019-01-27T20:35:00.000Z,96702
2019-01-27T20:40:00.000Z,96698
2019-01-27T20:45:00.000Z,96679
2019-01-27T20:50:00.000Z,96676
2019-01-27T20:55:00.000Z,96671
2019-01-27T21:00:00.000Z,96683
2019-01-27T21:05:00.000Z,96688
2019-01-27T21:10:00.000Z,96677
2019-01-27T21:15:00.000Z,96685
2019-01-27T21:20:00.000Z,96671
2019-01-27T21:25:00.000Z,96668
2019-01-27T21:30:00.000Z,96665
2019-01-27T21:35:00.000Z,96668
2019-01-27T21:40:00.000Z,96666
2019-01-27T21:45:00.000Z,96670
2019-01-27T21:50:00.000Z,96664
2019-01-27T21:55:00.000Z,96659
2019-01-27T22:00:00.000Z,96671
2019-01-27T22:05:00.000Z,96667
2019-01-27T22:10:00.000Z,96659
2019-01-27T22:15:00.000Z,96659
2019-01-27T22:20:00.000Z,96660
2019-01-27T22:25:00.000Z,96669
2019-01-27T22:30:00.000Z,96677
2019-01-27T22:35:00.000Z,96671
2019-01-27T22:40:00.000Z,96648
2019-01-27T22:45:00.000Z,96651
2019-01-27T22:50:00.000Z,96634
2019-01-27T22:56:00.000Z,96628
2019-01-27T23:01:00.000Z,96626
2019-01-27T23:06:00.000Z,96618
2019-01-27T23:11:00.000Z,96630
2019-01-27T23:16:00.000Z,96626
2019-01-27T23:21:00.000Z,96635
2019-01-27T23:26:00.000Z,96644
2019-01-27T23:31:00.000Z,96644
2019-01-27T23:36:00.000Z,96617
2019-01-27T23:41:00.000Z,96629
2019-01-27T23:46:00.000Z,96609
2019-01-27T23:51:00.000Z,96604
2019-01-27T23:56:00.000Z,96593
